M I D A S
Marine Information and Data Acquisition System
Tripno 1715 of the Zeeleeuw from 2009-06-24 06:47:07 to 2009-06-24 15:11:18
Back to CruiseResearch ActivitiesStationsMapUnderway DataData graphs

EquipmentUnitsComment
TimeDGPSUTC
LatitudeDGPSDM.mWGS84
LongitudeDGPSDM.mWGS84
HeadingGyrodeg 
SOGDGPSknotsSpeed over ground
COGDGPSdegCourse over ground
DepthEcho soundermeters200 kHz
Missing or incorrect values are displayed as -999
Navigation data collected by the RV Zeeleeuw from 2009-06-24 06:44:21 to 2009-06-24 15:18:51
                                                                                    Next 1000 lines
Time Latitude Longitude Heading SOG COG Depth
2009-06-24 06:44:31 51°13.661 2°55.956 116.6 0.9 296 4.6
2009-06-24 06:44:35 51°13.662 2°55.954 116.6 1.4 292 4.6
2009-06-24 06:44:40 51°13.663 2°55.95 116.1 1.8 295 4.5
2009-06-24 06:44:46 51°13.664 2°55.946 116 2.1 295 4.5
2009-06-24 06:44:50 51°13.666 2°55.942 116.3 2.4 297 -999
2009-06-24 06:44:56 51°13.668 2°55.936 117.3 2.7 298 -999
2009-06-24 06:45:02 51°13.671 2°55.929 118.3 2.9 301 -999
2009-06-24 06:45:07 51°13.673 2°55.923 119.2 3.2 301 -999
2009-06-24 06:45:12 51°13.675 2°55.917 119.4 3.2 302 -999
2009-06-24 06:45:18 51°13.678 2°55.91 119.2 3.1 302 -999
2009-06-24 06:45:22 51°13.679 2°55.905 118.3 3 301 -999
2009-06-24 06:45:27 51°13.682 2°55.9 117.1 2.9 299 -999
2009-06-24 06:45:32 51°13.683 2°55.894 115 2.9 295 -999
2009-06-24 06:45:38 51°13.685 2°55.887 112.5 3 295 -999
2009-06-24 06:45:42 51°13.686 2°55.882 110.1 2.9 290 -999
2009-06-24 06:45:47 51°13.688 2°55.876 108.4 3.1 291 4.8
2009-06-24 06:45:52 51°13.689 2°55.868 106.9 3.4 286 4.7
2009-06-24 06:45:57 51°13.69 2°55.861 105.4 3.6 285 5.2
2009-06-24 06:46:02 51°13.691 2°55.853 103.2 3.8 281 -999
2009-06-24 06:46:07 51°13.692 2°55.844 100 3.9 280 -999
2009-06-24 06:46:12 51°13.693 2°55.835 97.8 4 277 -999
2009-06-24 06:46:17 51°13.694 2°55.826 95.9 4.3 276 -999
2009-06-24 06:46:22 51°13.694 2°55.816 93.6 4.4 274 -999
2009-06-24 06:46:27 51°13.694 2°55.807 92 4.1 273 -999
2009-06-24 06:46:32 51°13.695 2°55.798 90.1 3.8 271 -999
2009-06-24 06:46:37 51°13.695 2°55.79 88.7 3.6 270 -999
2009-06-24 06:46:42 51°13.694 2°55.782 87.2 3.5 269 -999
2009-06-24 06:46:47 51°13.694 2°55.775 86.4 3.3 268 -999
2009-06-24 06:46:52 51°13.694 2°55.768 85.4 3.1 267 10.6
2009-06-24 06:46:57 51°13.694 2°55.762 84.6 2.7 267 11.1
2009-06-24 06:47:02 51°13.694 2°55.756 83.6 2.3 265 11.4
2009-06-24 06:47:07 51°13.694 2°55.752 82.1 2.1 266 11.3
2009-06-24 06:47:11 51°13.693 2°55.749 80.2 1.7 265 11.4
2009-06-24 06:47:16 51°13.693 2°55.746 78.2 1.4 270 11.5
2009-06-24 06:47:21 51°13.694 2°55.743 75.6 1 274 11.7
2009-06-24 06:47:26 51°13.694 2°55.742 72.4 0.6 295 11.8
2009-06-24 06:47:31 51°13.694 2°55.741 68.2 0.5 332 11.8
2009-06-24 06:47:36 51°13.695 2°55.742 62.9 0.7 14 11.6
2009-06-24 06:47:41 51°13.697 2°55.743 56.9 1.2 23 11.7
2009-06-24 06:47:46 51°13.699 2°55.744 49.9 1.6 24 11.3
2009-06-24 06:47:50 51°13.701 2°55.746 42.3 2.1 20 10.9
2009-06-24 06:47:55 51°13.705 2°55.748 34.5 2.7 15 11
2009-06-24 06:48:00 51°13.71 2°55.749 26.6 3 10 11.8
2009-06-24 06:48:05 51°13.714 2°55.749 17.5 3 2 11.2
2009-06-24 06:48:10 51°13.718 2°55.749 9.4 2.8 359 11
2009-06-24 06:48:14 51°13.721 2°55.748 4 2.8 355 10.8
2009-06-24 06:48:19 51°13.725 2°55.748 0.1 2.9 352 10.4
2009-06-24 06:48:24 51°13.729 2°55.746 356.2 3 347 10.5
2009-06-24 06:48:29 51°13.733 2°55.744 351.1 3.2 342 10.5
2009-06-24 06:48:34 51°13.737 2°55.741 345.5 3.4 336 9.9
2009-06-24 06:48:39 51°13.742 2°55.738 340.3 3.5 332 9.8
2009-06-24 06:48:43 51°13.745 2°55.734 332 3.5 326 9.1
2009-06-24 06:48:49 51°13.749 2°55.728 326.5 3.5 323 8.1
2009-06-24 06:48:54 51°13.753 2°55.724 323.1 3.6 321 8.1
2009-06-24 06:48:59 51°13.757 2°55.718 320.7 3.6 318 8.2
2009-06-24 06:49:03 51°13.76 2°55.714 319.2 3.7 317 8.2
2009-06-24 06:49:09 51°13.764 2°55.707 318.3 3.7 316 8.3
2009-06-24 06:49:14 51°13.768 2°55.701 318.1 3.8 318 8.3
2009-06-24 06:49:19 51°13.772 2°55.695 318.9 3.8 318 8.5
2009-06-24 06:49:23 51°13.775 2°55.691 320.6 3.9 320 8.3
2009-06-24 06:49:29 51°13.781 2°55.684 322.7 3.9 322 8.5
2009-06-24 06:49:34 51°13.785 2°55.679 324.7 4 324 8.4
2009-06-24 06:49:39 51°13.79 2°55.674 326.2 4 324 8.4
2009-06-24 06:49:43 51°13.793 2°55.67 327.4 4.1 326 8.7
2009-06-24 06:49:49 51°13.799 2°55.664 328.8 4.3 327 9
2009-06-24 06:49:54 51°13.805 2°55.659 330.2 4.4 330 9.1
2009-06-24 06:49:59 51°13.81 2°55.654 331.7 4.5 331 9.1
2009-06-24 06:50:03 51°13.815 2°55.65 333.4 4.6 334 9.1
2009-06-24 06:50:09 51°13.822 2°55.645 335 4.7 335 9.1
2009-06-24 06:50:14 51°13.828 2°55.641 338.5 4.7 341 8.9
2009-06-24 06:50:19 51°13.834 2°55.639 342.9 4.7 344 8.7
2009-06-24 06:50:23 51°13.839 2°55.637 348.5 3.8 351 8.6
2009-06-24 06:50:29 51°13.847 2°55.636 354.6 4.4 355 8.3
2009-06-24 06:50:34 51°13.852 2°55.636 359 4.2 -999 7.9
2009-06-24 06:50:39 51°13.858 2°55.637 5.3 4.1 5 7.5
2009-06-24 06:50:44 51°13.863 2°55.638 10.2 4 10 7.1
2009-06-24 06:50:49 51°13.869 2°55.64 15 3.9 13 6.9
2009-06-24 06:50:54 51°13.874 2°55.643 19.6 3.8 17 6.6
2009-06-24 06:50:58 51°13.878 2°55.645 23.5 3.7 21 6.8
2009-06-24 06:51:04 51°13.883 2°55.648 25.8 3.6 21 7.3
2009-06-24 06:51:08 51°13.887 2°55.651 27.2 3.4 23 6.8
2009-06-24 06:51:14 51°13.892 2°55.654 27.5 3.3 21 7
2009-06-24 06:51:19 51°13.896 2°55.656 26.9 3.2 21 7.5
2009-06-24 06:51:23 51°13.899 2°55.658 25.5 3.2 16 7.6
2009-06-24 06:51:29 51°13.905 2°55.66 23.2 3.2 18 8.1
2009-06-24 06:51:34 51°13.909 2°55.661 18.5 3 8 8.4
2009-06-24 06:51:39 51°13.913 2°55.662 15.2 2.9 11 8.2
2009-06-24 06:51:43 51°13.915 2°55.662 11.3 2.8 5 8.2
2009-06-24 06:51:49 51°13.92 2°55.663 8.8 2.6 6 8.3
2009-06-24 06:51:54 51°13.923 2°55.663 7.1 2.4 2 8.4
2009-06-24 06:51:59 51°13.926 2°55.663 5.1 2.2 2 8.4
2009-06-24 06:52:03 51°13.928 2°55.663 3 2 357 8.5
2009-06-24 06:52:09 51°13.931 2°55.663 -999 1.8 356 8.6
2009-06-24 06:52:14 51°13.934 2°55.662 356.5 1.6 352 9.5
2009-06-24 06:52:19 51°13.936 2°55.662 353.5 1.5 350 9.5
2009-06-24 06:52:23 51°13.937 2°55.662 351.2 1.4 348 9.2
2009-06-24 06:52:29 51°13.94 2°55.661 348.5 1.4 345 9.2
2009-06-24 06:52:34 51°13.941 2°55.66 345.6 1.3 343 9.5
2009-06-24 06:52:39 51°13.943 2°55.659 343.8 1.3 341 9.4
2009-06-24 06:52:43 51°13.944 2°55.658 341.7 1.3 340 9.4
2009-06-24 06:52:49 51°13.946 2°55.657 340.5 1.2 338 9.7
2009-06-24 06:52:54 51°13.948 2°55.656 339.3 1.2 337 9.7
2009-06-24 06:52:59 51°13.949 2°55.654 338.3 1.2 336 9.6
2009-06-24 06:53:04 51°13.95 2°55.653 337.6 1.1 335 9.4
2009-06-24 06:53:09 51°13.952 2°55.652 337.2 1.1 335 9.3
2009-06-24 06:53:14 51°13.953 2°55.651 336.8 1.1 333 9.3
2009-06-24 06:53:19 51°13.954 2°55.65 336.2 1.1 331 9.5
2009-06-24 06:53:24 51°13.956 2°55.649 335.9 1 331 9.7
2009-06-24 06:53:29 51°13.957 2°55.648 335.5 1 329 9.9
2009-06-24 06:53:34 51°13.958 2°55.647 335.2 1 328 9.9
2009-06-24 06:53:39 51°13.959 2°55.646 335.1 1 329 9.8
2009-06-24 06:53:43 51°13.96 2°55.645 334.9 0.9 329 9.9
2009-06-24 06:53:49 51°13.961 2°55.644 334.9 0.9 328 9.9
2009-06-24 06:53:54 51°13.962 2°55.643 334.9 0.9 328 9.9
2009-06-24 06:53:59 51°13.963 2°55.642 334.9 0.8 327 9.9
2009-06-24 06:54:03 51°13.964 2°55.641 335.2 0.8 328 9.9
2009-06-24 06:54:09 51°13.965 2°55.64 335.7 0.7 326 9.9
2009-06-24 06:54:14 51°13.966 2°55.639 336.1 0.7 325 9.7
2009-06-24 06:54:19 51°13.966 2°55.638 336.7 0.6 324 9.6
2009-06-24 06:54:23 51°13.967 2°55.637 337.3 0.5 321 9.5
2009-06-24 06:54:29 51°13.967 2°55.637 338.2 0.2 296 9.5
2009-06-24 06:54:34 51°13.967 2°55.637 338.5 0.2 251 9.5
2009-06-24 06:54:39 51°13.967 2°55.636 338.8 0.2 195 9.5
2009-06-24 06:54:43 51°13.966 2°55.637 338.8 0.4 177 9.4
2009-06-24 06:54:49 51°13.965 2°55.637 338.8 0.5 172 9.3
2009-06-24 06:54:54 51°13.965 2°55.637 338.7 0.5 172 9.5
2009-06-24 06:54:59 51°13.964 2°55.637 338.7 0.5 172 9.6
2009-06-24 06:55:04 51°13.963 2°55.637 338.7 0.5 173 9.9
2009-06-24 06:55:09 51°13.963 2°55.637 338.5 0.4 173 9.9
2009-06-24 06:55:14 51°13.962 2°55.637 338.3 0.4 173 9.9
2009-06-24 06:55:19 51°13.962 2°55.638 338.2 0.4 173 4.7
2009-06-24 06:55:23 51°13.961 2°55.638 338 0.4 173 4.9
2009-06-24 06:55:29 51°13.961 2°55.638 337.8 0.4 173 4.6
2009-06-24 06:55:34 51°13.96 2°55.638 337.6 0.4 176 10
2009-06-24 06:55:39 51°13.96 2°55.638 337.4 0.4 178 10
2009-06-24 06:55:43 51°13.959 2°55.638 337.2 0.4 178 10
2009-06-24 06:55:49 51°13.959 2°55.638 337.1 0.4 178 10
2009-06-24 06:55:54 51°13.958 2°55.638 336.9 0.4 177 10
2009-06-24 06:55:59 51°13.958 2°55.638 336.9 0.3 174 10
2009-06-24 06:56:03 51°13.957 2°55.638 336.9 0.3 176 10
2009-06-24 06:56:09 51°13.957 2°55.638 336.9 0.3 174 9.9
2009-06-24 06:56:14 51°13.956 2°55.638 337 0.3 174 9.9
2009-06-24 06:56:19 51°13.956 2°55.638 337.2 0.3 174 10
2009-06-24 06:56:23 51°13.955 2°55.638 337.5 0.3 174 10
2009-06-24 06:56:29 51°13.955 2°55.638 337.8 0.3 173 10
2009-06-24 06:56:34 51°13.954 2°55.638 338.1 0.3 177 9.9
2009-06-24 06:56:38 51°13.954 2°55.638 338.3 0.3 170 9.9
2009-06-24 06:56:44 51°13.954 2°55.638 338.6 0.3 173 9.9
2009-06-24 06:56:48 51°13.953 2°55.638 339 0.3 169 9.9
2009-06-24 06:56:54 51°13.953 2°55.638 339.2 0.3 171 9.9
2009-06-24 06:56:59 51°13.953 2°55.639 339.5 0.3 169 9.9
2009-06-24 06:57:04 51°13.952 2°55.639 339.8 0.3 170 9.8
2009-06-24 06:57:09 51°13.952 2°55.639 340.2 0.3 169 9.8
2009-06-24 06:57:14 51°13.952 2°55.639 340.6 0.3 168 9.8
2009-06-24 06:57:19 51°13.951 2°55.639 341 0.2 171 9.8
2009-06-24 06:57:23 51°13.951 2°55.639 341.4 0.2 167 9.5
2009-06-24 06:57:29 51°13.951 2°55.639 341.9 0.2 175 9.5
2009-06-24 06:57:34 51°13.95 2°55.639 342.3 0.2 178 9.5
2009-06-24 06:57:39 51°13.95 2°55.64 342.7 0.2 175 9.3
2009-06-24 06:57:43 51°13.95 2°55.64 343.2 0.2 177 9.3
2009-06-24 06:57:49 51°13.95 2°55.64 343.6 0.2 184 9.3
2009-06-24 06:57:54 51°13.95 2°55.64 344.1 0.1 186 9.2
2009-06-24 06:57:59 51°13.95 2°55.64 344.5 0.2 193 9.2
2009-06-24 06:58:03 51°13.949 2°55.64 344.8 0.1 194 9.2
2009-06-24 06:58:09 51°13.949 2°55.64 345.1 0.1 198 9.2
2009-06-24 06:58:14 51°13.949 2°55.64 345.3 0.1 195 9.2
2009-06-24 06:58:19 51°13.949 2°55.64 345.4 0.1 214 9.2
2009-06-24 06:58:24 51°13.949 2°55.64 345.5 0.1 213 9.2
2009-06-24 06:58:28 51°13.949 2°55.64 345.5 0.1 237 9.2
2009-06-24 06:58:34 51°13.949 2°55.639 345.2 0.1 250 9.2
2009-06-24 06:58:38 51°13.949 2°55.639 344.8 0.1 263 9.2
2009-06-24 06:58:43 51°13.949 2°55.639 344.5 0.1 279 9.2
2009-06-24 06:58:48 51°13.949 2°55.638 344 0.1 284 9.2
2009-06-24 06:58:54 51°13.949 2°55.638 343.5 0.2 289 9.2
2009-06-24 06:58:59 51°13.95 2°55.637 343 0.2 290 9.3
2009-06-24 06:59:03 51°13.95 2°55.637 342.5 0.2 294 9.3
2009-06-24 06:59:08 51°13.95 2°55.636 341.9 0.2 295 9.4
2009-06-24 06:59:14 51°13.95 2°55.636 341.5 0.2 298 9.5
2009-06-24 06:59:19 51°13.951 2°55.635 341 0.2 303 9.5
2009-06-24 06:59:23 51°13.951 2°55.635 340.5 0.3 305 9.6
2009-06-24 06:59:27 51°13.951 2°55.635 340 0.3 303 9.7
2009-06-24 06:59:33 51°13.951 2°55.635 339.6 0.3 305 9.8
2009-06-24 06:59:39 51°13.952 2°55.634 339.1 0.4 313 9.8
2009-06-24 06:59:43 51°13.952 2°55.633 338.7 0.5 316 9.8
2009-06-24 06:59:47 51°13.952 2°55.633 338 0.6 322 9.9
2009-06-24 06:59:53 51°13.953 2°55.632 337.2 0.8 322 9.9
2009-06-24 06:59:58 51°13.954 2°55.63 336.2 1 324 10
2009-06-24 07:00:03 51°13.956 2°55.629 335.4 1.1 327 10.1
2009-06-24 07:00:08 51°13.957 2°55.628 334.5 1.2 327 9.8
2009-06-24 07:00:13 51°13.959 2°55.626 333.5 1.4 326 9.2
2009-06-24 07:00:18 51°13.961 2°55.624 332.6 1.5 328 9.4
2009-06-24 07:00:23 51°13.963 2°55.622 331.8 1.7 327 9.5
2009-06-24 07:00:29 51°13.965 2°55.62 331.1 1.9 328 9.8
2009-06-24 07:00:34 51°13.968 2°55.617 330.3 2.1 326 9.7
2009-06-24 07:00:38 51°13.97 2°55.615 329.6 2.3 327 9.7
2009-06-24 07:00:43 51°13.973 2°55.612 328.9 2.5 327 9.8
2009-06-24 07:00:49 51°13.976 2°55.608 328.2 2.7 326 9.7
2009-06-24 07:00:54 51°13.98 2°55.605 327.5 2.9 325 9.5
2009-06-24 07:00:59 51°13.983 2°55.6 326.7 3.2 325 9.7
2009-06-24 07:01:03 51°13.986 2°55.597 325.5 3.6 323 9.3
2009-06-24 07:01:09 51°13.992 2°55.59 324.3 4.2 321 9.4
2009-06-24 07:01:14 51°13.997 2°55.583 323.4 4.7 321 9.6
2009-06-24 07:01:18 51°14.001 2°55.577 323 5.2 320 9.3
2009-06-24 07:01:23 51°14.007 2°55.569 322.9 5.6 321 9.3
2009-06-24 07:01:28 51°14.014 2°55.561 323.1 6 321 9.1
2009-06-24 07:01:34 51°14.022 2°55.551 323.7 6.3 321 8.9
2009-06-24 07:01:38 51°14.028 2°55.544 323.8 6.6 321 8.9
2009-06-24 07:01:43 51°14.035 2°55.534 323.7 6.9 321 9
2009-06-24 07:01:48 51°14.043 2°55.524 323.6 7.1 322 8.6
2009-06-24 07:01:53 51°14.051 2°55.515 324.4 7.2 322 8.6
2009-06-24 07:01:58 51°14.059 2°55.505 325.5 7.4 323 8.8
2009-06-24 07:02:03 51°14.067 2°55.495 325.8 7.5 322 9.1
2009-06-24 07:02:08 51°14.076 2°55.484 325.2 7.6 322 8.9
2009-06-24 07:02:14 51°14.086 2°55.472 325.1 7.7 323 8.9
2009-06-24 07:02:18 51°14.093 2°55.464 325.6 7.8 323 9
2009-06-24 07:02:23 51°14.102 2°55.453 326 7.9 323 8.8
2009-06-24 07:02:28 51°14.11 2°55.443 325.7 7.9 322 9
2009-06-24 07:02:34 51°14.121 2°55.43 326.3 8 324 9.1
2009-06-24 07:02:38 51°14.128 2°55.422 327.4 8 324 9
2009-06-24 07:02:43 51°14.137 2°55.412 327.6 8.1 325 9
2009-06-24 07:02:48 51°14.147 2°55.401 327.6 8.1 324 9
2009-06-24 07:02:54 51°14.157 2°55.389 327.6 7.8 325 8.9
2009-06-24 07:02:58 51°14.164 2°55.381 327.4 7.5 324 9
2009-06-24 07:03:03 51°14.172 2°55.372 327.1 7.3 324 8.9
2009-06-24 07:03:08 51°14.18 2°55.362 327 7 323 8.9
2009-06-24 07:03:13 51°14.188 2°55.353 326.9 6.8 323 9.5
2009-06-24 07:03:18 51°14.195 2°55.344 326.6 6.7 323 8.9
2009-06-24 07:03:23 51°14.202 2°55.335 326.3 6.5 323 9
2009-06-24 07:03:28 51°14.21 2°55.327 326.1 6.3 322 9
2009-06-24 07:03:33 51°14.217 2°55.319 325.9 6.2 322 9
2009-06-24 07:03:38 51°14.223 2°55.31 325.3 6.1 321 8.9
2009-06-24 07:03:43 51°14.229 2°55.302 324.5 5.9 320 9
2009-06-24 07:03:47 51°14.235 2°55.295 323.1 5.8 319 9
2009-06-24 07:03:53 51°14.242 2°55.284 321.3 5.8 317 9
2009-06-24 07:03:59 51°14.249 2°55.274 319.5 5.8 315 9.1
2009-06-24 07:04:03 51°14.253 2°55.266 318.2 5.9 314 9.2
2009-06-24 07:04:07 51°14.258 2°55.259 317.1 6.1 313 9.1
2009-06-24 07:04:13 51°14.265 2°55.246 315.8 6.2 312 8.9
2009-06-24 07:04:18 51°14.271 2°55.235 314.9 6.4 311 9
2009-06-24 07:04:23 51°14.277 2°55.224 314.4 6.8 311 8.9
2009-06-24 07:04:27 51°14.282 2°55.215 313.6 7.3 310 8.8
2009-06-24 07:04:33 51°14.29 2°55.199 312.8 7.9 310 9
2009-06-24 07:04:39 51°14.299 2°55.181 311.7 8.5 308 9
2009-06-24 07:04:43 51°14.305 2°55.169 311 9 308 8.8
2009-06-24 07:04:47 51°14.311 2°55.156 311.5 9.4 309 9
2009-06-24 07:04:53 51°14.321 2°55.136 312.4 9.8 309 9
2009-06-24 07:04:58 51°14.33 2°55.118 311.5 10.1 307 8.8
2009-06-24 07:05:03 51°14.338 2°55.099 308.9 10.4 305 9
2009-06-24 07:05:08 51°14.347 2°55.081 308.3 10.6 307 9
2009-06-24 07:05:13 51°14.356 2°55.062 310.3 10.7 309 8.9
2009-06-24 07:05:18 51°14.365 2°55.044 312.1 10.8 310 8.8
2009-06-24 07:05:23 51°14.375 2°55.025 312.9 10.9 309 8.6
2009-06-24 07:05:29 51°14.387 2°55.002 311.8 11 308 8.5
2009-06-24 07:05:34 51°14.396 2°54.983 311.7 11.1 309 8.6
2009-06-24 07:05:39 51°14.406 2°54.965 313 11.1 310 8.7
2009-06-24 07:05:44 51°14.417 2°54.946 314.9 11.1 312 8.8
2009-06-24 07:05:49 51°14.427 2°54.929 317.2 11.2 314 9
2009-06-24 07:05:55 51°14.441 2°54.908 319.8 11.2 316 9
2009-06-24 07:05:59 51°14.45 2°54.895 321.7 11.3 318 9
2009-06-24 07:06:04 51°14.462 2°54.878 324.1 11.3 319 9
2009-06-24 07:06:08 51°14.472 2°54.866 326.3 11.3 321 8.8
2009-06-24 07:06:14 51°14.487 2°54.846 328.9 11.4 320 8.9
2009-06-24 07:06:19 51°14.499 2°54.83 330.1 11.4 320 8.8
2009-06-24 07:06:24 51°14.511 2°54.815 331.4 11.4 321 8.8
2009-06-24 07:06:29 51°14.523 2°54.798 331.6 11.5 319 8.8
2009-06-24 07:06:34 51°14.535 2°54.781 330.4 11.5 319 8.6
2009-06-24 07:06:40 51°14.55 2°54.762 330.1 11.5 320 8.7
2009-06-24 07:06:44 51°14.56 2°54.749 330.6 11.5 320 8.5
2009-06-24 07:06:49 51°14.572 2°54.733 331.7 11.5 321 8.4
2009-06-24 07:06:54 51°14.584 2°54.716 331.2 11.5 319 8.4
2009-06-24 07:06:59 51°14.596 2°54.7 330.8 11.5 320 8.5
2009-06-24 07:07:04 51°14.609 2°54.684 331.1 11.4 320 8.3
2009-06-24 07:07:09 51°14.621 2°54.669 331.9 11.3 321 8.4
2009-06-24 07:07:14 51°14.633 2°54.653 332.2 11.4 321 8.3
2009-06-24 07:07:19 51°14.646 2°54.638 333.2 11.3 323 8.4
2009-06-24 07:07:24 51°14.658 2°54.622 334.6 11.3 323 8.2
2009-06-24 07:07:29 51°14.671 2°54.608 335.2 11.3 324 8.5
2009-06-24 07:07:34 51°14.684 2°54.593 335.7 11.3 324 8.5
2009-06-24 07:07:39 51°14.696 2°54.578 336.2 11.3 324 8.4
2009-06-24 07:07:44 51°14.709 2°54.563 336.6 11.3 324 8.5
2009-06-24 07:07:49 51°14.721 2°54.549 337.1 11.2 324 8.3
2009-06-24 07:07:54 51°14.734 2°54.536 337.6 11 326 8.4
2009-06-24 07:07:59 51°14.747 2°54.52 335.7 11.3 322 8.4
2009-06-24 07:08:04 51°14.759 2°54.505 333.7 11.2 322 8.4
2009-06-24 07:08:09 51°14.771 2°54.489 332 11.3 318 8.4
2009-06-24 07:08:14 51°14.782 2°54.472 329.4 11.3 319 8.3
2009-06-24 07:08:19 51°14.794 2°54.455 327.8 11.4 316 8.3
2009-06-24 07:08:24 51°14.805 2°54.438 326.3 11.4 316 8.3
2009-06-24 07:08:29 51°14.817 2°54.42 325.3 11.4 315 8.2
2009-06-24 07:08:34 51°14.828 2°54.402 323.9 11.4 315 8.2
2009-06-24 07:08:39 51°14.839 2°54.384 323.4 11.4 314 8.3
2009-06-24 07:08:44 51°14.85 2°54.365 322.3 11.4 313 8.1
2009-06-24 07:08:49 51°14.86 2°54.346 320.8 11.5 312 8.1
2009-06-24 07:08:54 51°14.871 2°54.327 320.4 11.4 311 7.8
2009-06-24 07:09:00 51°14.883 2°54.304 319.7 11.4 311 7.8
2009-06-24 07:09:04 51°14.891 2°54.288 317.9 11.5 308 7.8
2009-06-24 07:09:09 51°14.9 2°54.268 316.3 11.5 307 7.7
2009-06-24 07:09:14 51°14.91 2°54.247 315.1 11.5 306 7.7
2009-06-24 07:09:19 51°14.919 2°54.227 314.4 11.5 307 7.6
2009-06-24 07:09:24 51°14.928 2°54.206 313.7 11.4 306 -999
2009-06-24 07:09:29 51°14.939 2°54.188 316.8 11.3 311 7.4
2009-06-24 07:09:35 51°14.951 2°54.165 318 11.3 309 7.3
2009-06-24 07:09:39 51°14.959 2°54.15 319.4 11.2 312 7.1
2009-06-24 07:09:44 51°14.969 2°54.131 320.5 11.2 311 7.4
2009-06-24 07:09:48 51°14.978 2°54.117 321.5 11.1 314 7.1
2009-06-24 07:09:54 51°14.991 2°54.096 322.3 11.2 314 7.5
2009-06-24 07:09:59 51°15.002 2°54.079 323.7 11.1 317 7.4
2009-06-24 07:10:04 51°15.014 2°54.063 326.1 11.1 319 7.7
2009-06-24 07:10:08 51°15.023 2°54.049 327.1 11.1 318 8
2009-06-24 07:10:14 51°15.037 2°54.031 329.5 11 321 7.5
2009-06-24 07:10:19 51°15.049 2°54.016 330.1 11 321 7.9
2009-06-24 07:10:24 51°15.061 2°54.002 330.9 11 324 7.7
2009-06-24 07:10:28 51°15.071 2°53.989 331.8 11 322 7.8
2009-06-24 07:10:34 51°15.086 2°53.974 333.9 10.9 328 7.8
2009-06-24 07:10:39 51°15.099 2°53.96 335.4 11 326 7.9
2009-06-24 07:10:44 51°15.112 2°53.948 336.6 10.9 329 7.8
2009-06-24 07:10:48 51°15.122 2°53.938 337.8 10.9 329 7.9
2009-06-24 07:10:54 51°15.138 2°53.924 338.6 10.9 331 8
2009-06-24 07:10:59 51°15.151 2°53.912 339.3 10.9 330 7.9
2009-06-24 07:11:04 51°15.164 2°53.9 339.8 10.9 331 7.9
2009-06-24 07:11:08 51°15.175 2°53.891 340.2 10.9 331 7.9
2009-06-24 07:11:14 51°15.191 2°53.877 340.7 10.8 332 7.9
2009-06-24 07:11:19 51°15.204 2°53.866 341.1 10.9 332 8.1
2009-06-24 07:11:24 51°15.217 2°53.854 341.2 10.9 331 8.1
2009-06-24 07:11:28 51°15.228 2°53.845 341.1 10.9 331 8.1
2009-06-24 07:11:34 51°15.244 2°53.831 341 10.9 331 8.1
2009-06-24 07:11:39 51°15.257 2°53.819 340.9 11 331 8.1
2009-06-24 07:11:44 51°15.27 2°53.808 341.3 10.9 332 8.3
2009-06-24 07:11:48 51°15.281 2°53.799 342.2 10.9 332 8
2009-06-24 07:11:54 51°15.297 2°53.785 342.1 11 331 8.3
2009-06-24 07:11:59 51°15.31 2°53.773 341.3 11 331 8.1
2009-06-24 07:12:04 51°15.324 2°53.761 341.5 11 331 8.3
2009-06-24 07:12:08 51°15.334 2°53.752 342 11 331 8.4
2009-06-24 07:12:14 51°15.351 2°53.738 342.1 11 331 8.5
2009-06-24 07:12:19 51°15.364 2°53.726 341.8 11.1 330 8.7
2009-06-24 07:12:24 51°15.377 2°53.714 341.6 11 331 8.4
2009-06-24 07:12:28 51°15.388 2°53.704 341.5 11 330 8.5
2009-06-24 07:12:34 51°15.404 2°53.69 341.2 11 330 8.6
2009-06-24 07:12:39 51°15.417 2°53.677 341.1 11.1 329 8.6
2009-06-24 07:12:44 51°15.43 2°53.664 339 11.1 327 8.8
2009-06-24 07:12:48 51°15.44 2°53.653 338.3 11.1 327 8.8
2009-06-24 07:12:54 51°15.456 2°53.636 337.2 11.2 325 8.7
2009-06-24 07:12:59 51°15.468 2°53.622 336.6 11.2 326 9
2009-06-24 07:13:04 51°15.481 2°53.608 336 11.2 324 8.5
2009-06-24 07:13:08 51°15.491 2°53.597 335.5 11.1 325 8.7
2009-06-24 07:13:14 51°15.506 2°53.579 335.3 11.2 324 9.1
2009-06-24 07:13:19 51°15.519 2°53.565 335 11.2 324 9.2
2009-06-24 07:13:24 51°15.531 2°53.55 334.9 11.2 324 8.9
2009-06-24 07:13:28 51°15.542 2°53.539 335.3 11.2 324 9.4
2009-06-24 07:13:34 51°15.557 2°53.521 335 11.3 323 8.8
2009-06-24 07:13:40 51°15.572 2°53.503 334.4 11.3 323 9.4
2009-06-24 07:13:44 51°15.582 2°53.491 335.4 11.3 324 9.2
2009-06-24 07:13:48 51°15.592 2°53.479 335.8 11.3 324 9.5
2009-06-24 07:13:54 51°15.607 2°53.461 335 11.4 323 9.4
2009-06-24 07:13:59 51°15.62 2°53.446 335.1 11.4 323 9.5
2009-06-24 07:14:04 51°15.632 2°53.431 335.4 11.4 323 9.5
2009-06-24 07:14:08 51°15.642 2°53.419 335.4 11.4 323 9.4
2009-06-24 07:14:14 51°15.657 2°53.4 335.4 11.5 323 9.6
2009-06-24 07:14:19 51°15.67 2°53.385 335 11.5 323 9.4
2009-06-24 07:14:24 51°15.683 2°53.369 335 11.6 323 9.4
2009-06-24 07:14:28 51°15.693 2°53.357 335 11.6 323 9.8
2009-06-24 07:14:34 51°15.709 2°53.339 335.4 11.5 323 9.5
2009-06-24 07:14:39 51°15.721 2°53.323 335.4 11.4 323 9.5
2009-06-24 07:14:44 51°15.734 2°53.308 335.2 11.3 323 9.7
2009-06-24 07:14:48 51°15.744 2°53.296 335.2 11.2 323 9.8
2009-06-24 07:14:54 51°15.759 2°53.279 335.4 11.1 323 10
2009-06-24 07:14:59 51°15.771 2°53.264 335.3 11.3 324 9.6
2009-06-24 07:15:04 51°15.784 2°53.249 335.4 11.4 324 9.6
2009-06-24 07:15:08 51°15.794 2°53.237 335.4 11.6 324 10.1
2009-06-24 07:15:14 51°15.81 2°53.219 335 11.5 323 10
2009-06-24 07:15:19 51°15.822 2°53.204 335 11.3 324 10
2009-06-24 07:15:24 51°15.835 2°53.189 335.2 11.3 323 9.9
2009-06-24 07:15:28 51°15.845 2°53.177 335.3 11.4 325 10.1
2009-06-24 07:15:34 51°15.861 2°53.159 335.5 11.6 324 10.2
2009-06-24 07:15:39 51°15.874 2°53.145 335.4 11.5 324 10
2009-06-24 07:15:44 51°15.887 2°53.13 336.1 11.3 325 10.3
2009-06-24 07:15:48 51°15.897 2°53.12 337.5 11 326 10.1
2009-06-24 07:15:54 51°15.912 2°53.103 337.8 11.1 326 10.1
2009-06-24 07:16:00 51°15.929 2°53.087 339.6 11.4 328 10.4
2009-06-24 07:16:04 51°15.939 2°53.076 340 11.5 327 10.4
2009-06-24 07:16:08 51°15.95 2°53.066 340.5 11.2 329 10.2
2009-06-24 07:16:14 51°15.966 2°53.05 340.7 11 327 10.4
2009-06-24 07:16:19 51°15.979 2°53.036 339.4 11.4 327 10.2
2009-06-24 07:16:24 51°15.992 2°53.024 340.6 11.4 330 10.4
2009-06-24 07:16:28 51°16.003 2°53.014 342.1 11 326 10.2
2009-06-24 07:16:34 51°16.018 2°52.997 338.8 11.1 326 10.3
2009-06-24 07:16:39 51°16.032 2°52.986 341.2 11.2 333 10.4
2009-06-24 07:16:44 51°16.045 2°52.971 342.3 11.5 326 10.3
2009-06-24 07:16:48 51°16.055 2°52.962 340.7 10.9 332 10.5
2009-06-24 07:16:54 51°16.071 2°52.947 341.7 11.1 327 10.2
2009-06-24 07:16:59 51°16.084 2°52.935 340.7 11.1 331 10.3
2009-06-24 07:17:04 51°16.098 2°52.922 341.9 11.3 330 10.7
2009-06-24 07:17:10 51°16.114 2°52.908 341.9 11.2 331 10.4
2009-06-24 07:17:14 51°16.125 2°52.897 341.9 11.3 329 10.5
2009-06-24 07:17:19 51°16.138 2°52.885 341.6 11.2 330 10.5
2009-06-24 07:17:24 51°16.152 2°52.872 341.2 11.2 329 10.6
2009-06-24 07:17:28 51°16.162 2°52.862 340.7 11.2 328 10.3
2009-06-24 07:17:34 51°16.178 2°52.846 340.3 11.3 328 10.6
2009-06-24 07:17:39 51°16.192 2°52.833 340.2 11.4 329 10.7
2009-06-24 07:17:44 51°16.206 2°52.82 340.4 11.4 329 10.4
2009-06-24 07:17:48 51°16.216 2°52.81 340.4 11.2 329 10.7
2009-06-24 07:17:54 51°16.232 2°52.794 340.3 11.1 328 10.4
2009-06-24 07:17:59 51°16.245 2°52.78 339.9 11.3 328 10.8
2009-06-24 07:18:04 51°16.258 2°52.767 340.2 11.4 328 10.3
2009-06-24 07:18:08 51°16.269 2°52.757 340.1 11.2 328 10.7
2009-06-24 07:18:14 51°16.284 2°52.741 340.1 11.1 329 10.4
2009-06-24 07:18:20 51°16.3 2°52.725 340.5 11.2 328 10.5
2009-06-24 07:18:24 51°16.311 2°52.715 340.4 11.2 328 10.7
2009-06-24 07:18:28 51°16.321 2°52.704 340 11.3 327 10.7
2009-06-24 07:18:34 51°16.337 2°52.688 340.1 11.1 328 10.3
2009-06-24 07:18:39 51°16.35 2°52.674 340.5 11.2 326 10.7
2009-06-24 07:18:44 51°16.363 2°52.66 339.8 11.2 326 10.5
2009-06-24 07:18:48 51°16.373 2°52.65 339.5 11.2 327 10.6
2009-06-24 07:18:54 51°16.389 2°52.633 340.2 11.2 327 10.5
2009-06-24 07:18:59 51°16.402 2°52.62 340.5 11.2 327 10.6
2009-06-24 07:19:04 51°16.415 2°52.606 340.5 11.3 327 10.3
2009-06-24 07:19:08 51°16.426 2°52.595 340.4 11.2 327 10.4
2009-06-24 07:19:14 51°16.441 2°52.579 340.4 11.2 327 10.6
2009-06-24 07:19:19 51°16.455 2°52.566 340.4 11.3 327 10.5
2009-06-24 07:19:24 51°16.468 2°52.552 340.2 11.4 327 10.2
2009-06-24 07:19:30 51°16.483 2°52.535 340 11.3 327 10.6
2009-06-24 07:19:34 51°16.494 2°52.524 339.8 11.1 327 10
2009-06-24 07:19:39 51°16.507 2°52.511 340.3 11.2 327 10
2009-06-24 07:19:44 51°16.52 2°52.498 340.5 11.2 327 10.1
2009-06-24 07:19:48 51°16.531 2°52.488 340.2 11.2 329 10
2009-06-24 07:19:54 51°16.547 2°52.474 341.5 11 332 9.8
2009-06-24 07:19:59 51°16.56 2°52.462 342 11 332 9.8
2009-06-24 07:20:04 51°16.574 2°52.451 341.6 11 332 9.9
2009-06-24 07:20:08 51°16.585 2°52.442 341.7 11.1 332 9.6
2009-06-24 07:20:15 51°16.604 2°52.426 340.9 11.1 332 9.8
2009-06-24 07:20:20 51°16.618 2°52.415 340.2 11 333 9.7
2009-06-24 07:20:24 51°16.629 2°52.407 341 11 334 9.7
2009-06-24 07:20:28 51°16.64 2°52.399 342.6 11 337 9.5
2009-06-24 07:20:34 51°16.657 2°52.386 343 11 334 9.2
2009-06-24 07:20:39 51°16.671 2°52.377 343.5 10.9 338 9.4
2009-06-24 07:20:44 51°16.684 2°52.367 344.1 10.9 335 9.3
2009-06-24 07:20:48 51°16.696 2°52.361 344.9 10.8 338 9.1
2009-06-24 07:20:54 51°16.713 2°52.349 344.4 10.8 336 8.8
2009-06-24 07:20:59 51°16.726 2°52.34 344.8 10.8 338 8.6
2009-06-24 07:21:04 51°16.74 2°52.331 345.5 10.8 337 8.3
2009-06-24 07:21:08 51°16.752 2°52.325 346.6 10.7 340 8.5
2009-06-24 07:21:14 51°16.768 2°52.315 347 10.8 338 8.8
2009-06-24 07:21:19 51°16.782 2°52.308 347.8 10.6 342 8.7
2009-06-24 07:21:24 51°16.796 2°52.299 348.4 10.7 339 9.2
2009-06-24 07:21:28 51°16.807 2°52.293 348.9 10.6 343 9.1
2009-06-24 07:21:34 51°16.824 2°52.284 348.8 10.7 340 9.3
2009-06-24 07:21:39 51°16.838 2°52.277 349 10.7 343 9
2009-06-24 07:21:44 51°16.852 2°52.269 349.6 10.6 342 9.2
2009-06-24 07:21:48 51°16.863 2°52.264 350.5 10.6 344 8.8
2009-06-24 07:21:54 51°16.88 2°52.256 350.6 10.7 342 8.9
2009-06-24 07:21:59 51°16.894 2°52.248 349.8 10.6 343 8.6
2009-06-24 07:22:04 51°16.908 2°52.241 350.1 10.7 343 8.7
2009-06-24 07:22:09 51°16.923 2°52.235 350 10.5 343 9.1
2009-06-24 07:22:15 51°16.939 2°52.226 350.1 10.6 343 8.6
2009-06-24 07:22:19 51°16.951 2°52.222 351.3 10.5 346 8.6
2009-06-24 07:22:24 51°16.965 2°52.216 352.5 10.5 346 8.5
2009-06-24 07:22:29 51°16.979 2°52.211 353.2 10.5 347 8.8
2009-06-24 07:22:34 51°16.993 2°52.206 354.1 10.5 347 8.8
2009-06-24 07:22:40 51°17.01 2°52.2 354.7 10.5 348 9.2
2009-06-24 07:22:44 51°17.022 2°52.196 355.2 10.5 348 9.1
2009-06-24 07:22:49 51°17.036 2°52.191 355.5 10.5 349 9.3
2009-06-24 07:22:54 51°17.05 2°52.187 356.2 10.5 349 9.5
2009-06-24 07:22:59 51°17.065 2°52.182 356.1 10.5 348 9.3
2009-06-24 07:23:04 51°17.079 2°52.178 356 10.5 348 9.7
2009-06-24 07:23:09 51°17.093 2°52.173 355.9 10.5 348 9.2
2009-06-24 07:23:14 51°17.108 2°52.168 356 10.5 349 9.2
2009-06-24 07:23:19 51°17.122 2°52.164 356.4 10.5 349 9.7
2009-06-24 07:23:24 51°17.136 2°52.159 356.5 10.5 349 9.3
2009-06-24 07:23:29 51°17.15 2°52.154 356.2 10.5 348 9.5
2009-06-24 07:23:34 51°17.165 2°52.149 356.1 10.5 348 9.4
2009-06-24 07:23:39 51°17.179 2°52.145 355.9 10.5 349 9.6
2009-06-24 07:23:44 51°17.193 2°52.14 356 10.5 348 9.4
2009-06-24 07:23:49 51°17.208 2°52.135 355.9 10.5 349 9.4
2009-06-24 07:23:54 51°17.222 2°52.131 356.3 10.5 348 9.5
2009-06-24 07:23:59 51°17.236 2°52.126 355.9 10.6 348 9.6
2009-06-24 07:24:04 51°17.251 2°52.121 355.7 10.5 348 9.5
2009-06-24 07:24:09 51°17.265 2°52.117 356.1 10.5 348 10.2
2009-06-24 07:24:15 51°17.282 2°52.111 355.7 10.5 348 9.9
2009-06-24 07:24:20 51°17.296 2°52.107 356 10.5 349 10
2009-06-24 07:24:24 51°17.308 2°52.103 356.5 10.4 349 9.8
2009-06-24 07:24:29 51°17.322 2°52.099 356.4 10.4 348 9.7
2009-06-24 07:24:35 51°17.339 2°52.093 356.1 10.4 348 9.5
2009-06-24 07:24:39 51°17.35 2°52.089 356 10.4 348 9.9
2009-06-24 07:24:44 51°17.364 2°52.085 356.3 10.4 349 10
2009-06-24 07:24:49 51°17.379 2°52.08 355.7 10.4 347 10.1
2009-06-24 07:24:54 51°17.393 2°52.075 355.6 10.4 348 9.8
2009-06-24 07:25:00 51°17.41 2°52.07 356.3 10.4 349 9.5
2009-06-24 07:25:04 51°17.421 2°52.065 356.5 10.4 348 9.7
2009-06-24 07:25:09 51°17.435 2°52.059 356 10.2 345 9.6
2009-06-24 07:25:14 51°17.448 2°52.052 352.8 10.4 339 9.7
2009-06-24 07:25:19 51°17.461 2°52.041 347.2 10.5 332 9.6
2009-06-24 07:25:24 51°17.474 2°52.03 341.8 10.5 333 9.7
2009-06-24 07:25:29 51°17.486 2°52.017 340.5 10.6 328 9.1
2009-06-24 07:25:34 51°17.498 2°52.004 336.9 10.7 325 9
2009-06-24 07:25:39 51°17.51 2°51.989 334.1 10.8 322 9.1
2009-06-24 07:25:44 51°17.522 2°51.974 331.5 10.9 321 9.1
2009-06-24 07:25:49 51°17.533 2°51.957 329.4 11 319 8.8
2009-06-24 07:25:54 51°17.544 2°51.941 327.5 11 317 9.2
2009-06-24 07:25:59 51°17.555 2°51.923 326.2 11.1 315 9.1
2009-06-24 07:26:04 51°17.566 2°51.906 325.2 11.1 315 9
2009-06-24 07:26:09 51°17.575 2°51.887 322.3 11.2 311 9
2009-06-24 07:26:15 51°17.588 2°51.865 321.3 11.2 313 9
2009-06-24 07:26:19 51°17.596 2°51.849 320.5 11.3 310 8.9
2009-06-24 07:26:24 51°17.606 2°51.83 318.8 11.3 309 9
2009-06-24 07:26:29 51°17.616 2°51.81 318.4 11.3 309 8.7
2009-06-24 07:26:35 51°17.627 2°51.786 317.8 11.3 308 8.6
2009-06-24 07:26:40 51°17.637 2°51.766 316.1 11.5 307 8.6
2009-06-24 07:26:44 51°17.645 2°51.75 316.3 11.4 308 8.4
2009-06-24 07:26:49 51°17.654 2°51.73 316.1 11.4 307 8.9
2009-06-24 07:26:54 51°17.663 2°51.71 316 11.3 306 8.4
2009-06-24 07:27:00 51°17.674 2°51.686 315.1 11.3 306 8.3
2009-06-24 07:27:04 51°17.682 2°51.67 314.6 11.3 307 8.9
2009-06-24 07:27:09 51°17.691 2°51.649 314.2 11.4 305 8.4
2009-06-24 07:27:14 51°17.7 2°51.628 313.8 11.4 306 8.5
2009-06-24 07:27:19 51°17.709 2°51.608 313.9 11.5 306 8.6
2009-06-24 07:27:24 51°17.718 2°51.587 314.4 11.5 304 8.4
2009-06-24 07:27:29 51°17.727 2°51.566 314 11.4 305 8.4
2009-06-24 07:27:34 51°17.735 2°51.544 311.5 11.6 300 8.7
2009-06-24 07:27:39 51°17.743 2°51.522 310 11.5 301 8.2
2009-06-24 07:27:44 51°17.751 2°51.5 309.1 11.6 299 8.3
2009-06-24 07:27:49 51°17.759 2°51.477 307.5 11.6 299 8.9
2009-06-24 07:27:54 51°17.766 2°51.454 307 11.7 298 8.7
2009-06-24 07:27:59 51°17.774 2°51.431 306.5 11.7 299 8.4
2009-06-24 07:28:04 51°17.782 2°51.408 306.6 11.7 297 8.7
2009-06-24 07:28:09 51°17.789 2°51.385 305.8 11.8 297 8.9
2009-06-24 07:28:14 51°17.797 2°51.362 305.6 11.7 297 8.6
2009-06-24 07:28:19 51°17.804 2°51.339 305 11.8 297 8.9
2009-06-24 07:28:24 51°17.811 2°51.315 304.9 11.8 296 8.5
2009-06-24 07:28:29 51°17.818 2°51.292 304.1 11.7 296 9.4
2009-06-24 07:28:35 51°17.827 2°51.264 304.2 11.8 296 9.3
2009-06-24 07:28:39 51°17.832 2°51.245 304.4 11.8 297 9
2009-06-24 07:28:44 51°17.839 2°51.222 303.8 11.8 295 9
2009-06-24 07:28:49 51°17.847 2°51.198 303.9 11.8 296 9.3
2009-06-24 07:28:55 51°17.855 2°51.17 303.9 11.9 296 9.5
2009-06-24 07:29:00 51°17.863 2°51.147 304.5 11.9 297 9.5
2009-06-24 07:29:04 51°17.868 2°51.128 304.4 11.9 295 9.3
2009-06-24 07:29:09 51°17.876 2°51.104 303.7 11.9 297 9.7
2009-06-24 07:29:14 51°17.883 2°51.08 304.2 11.9 296 10
2009-06-24 07:29:20 51°17.891 2°51.052 303.7 11.9 295 10
2009-06-24 07:29:24 51°17.897 2°51.033 303 11.9 296 10
2009-06-24 07:29:29 51°17.904 2°51.009 303.5 12 295 10.3
2009-06-24 07:29:34 51°17.912 2°50.985 303.9 12 297 10.4
2009-06-24 07:29:40 51°17.921 2°50.957 304.6 11.9 297 10.1
2009-06-24 07:29:44 51°17.926 2°50.938 304.7 11.9 297 10.2
2009-06-24 07:29:49 51°17.934 2°50.914 304.4 12 296 10.6
2009-06-24 07:29:54 51°17.941 2°50.891 304.2 11.9 297 10.3
2009-06-24 07:29:59 51°17.948 2°50.867 303.5 12 294 10.6
2009-06-24 07:30:04 51°17.955 2°50.843 303.6 11.9 298 11
2009-06-24 07:30:09 51°17.962 2°50.819 304.5 12 294 11
2009-06-24 07:30:14 51°17.969 2°50.795 303.5 12 295 11.2
2009-06-24 07:30:19 51°17.977 2°50.771 303.8 12 297 11
2009-06-24 07:30:24 51°17.984 2°50.747 304.5 12 296 11.2
2009-06-24 07:30:29 51°17.992 2°50.723 304.8 12.1 296 11.1
2009-06-24 07:30:34 51°17.999 2°50.699 303.7 12 296 11.1
2009-06-24 07:30:39 51°18.006 2°50.675 303.8 11.9 295 11.6
2009-06-24 07:30:44 51°18.013 2°50.651 303.5 11.9 295 11.8
2009-06-24 07:30:49 51°18.02 2°50.627 304.2 12 295 11.4
2009-06-24 07:30:55 51°18.028 2°50.598 304.2 12 295 11.4
2009-06-24 07:30:59 51°18.035 2°50.58 304.5 11.9 297 11.5
2009-06-24 07:31:04 51°18.041 2°50.555 304.4 12 295 11.6
2009-06-24 07:31:09 51°18.048 2°50.531 303.8 12.1 295 11.9
2009-06-24 07:31:15 51°18.057 2°50.502 303.5 12.1 295 11.8
2009-06-24 07:31:20 51°18.064 2°50.478 304.2 12.1 296 11.6
2009-06-24 07:31:24 51°18.07 2°50.459 303.9 12.1 295 12
2009-06-24 07:31:29 51°18.078 2°50.435 304.7 12 297 11.8
2009-06-24 07:31:34 51°18.085 2°50.411 305 12.1 295 12
2009-06-24 07:31:40 51°18.094 2°50.383 305.4 12 298 11.8
2009-06-24 07:31:44 51°18.1 2°50.364 305.3 12.1 297 12
2009-06-24 07:31:49 51°18.108 2°50.34 305.5 12.1 297 12.3
2009-06-24 07:31:54 51°18.116 2°50.316 306.2 12.1 298 12
2009-06-24 07:32:00 51°18.125 2°50.287 306.3 12.2 296 12.3
2009-06-24 07:32:04 51°18.131 2°50.268 305.7 12.2 297 12.4
2009-06-24 07:32:09 51°18.139 2°50.244 305.8 12.2 297 12.3
2009-06-24 07:32:14 51°18.146 2°50.219 305.8 12.2 296 12
2009-06-24 07:32:19 51°18.153 2°50.195 305.1 12.1 296 12.3
2009-06-24 07:32:24 51°18.161 2°50.171 304.9 12.1 296 12.3
2009-06-24 07:32:29 51°18.168 2°50.147 305.1 12.1 297 12.3
2009-06-24 07:32:34 51°18.175 2°50.123 305.1 12.1 295 12.6
2009-06-24 07:32:39 51°18.183 2°50.099 304.9 12.1 297 12.4
2009-06-24 07:32:44 51°18.189 2°50.074 304.9 12.2 294 12.6
2009-06-24 07:32:49 51°18.197 2°50.05 304.3 12 296 12.3
2009-06-24 07:32:54 51°18.204 2°50.026 304.5 12.1 295 12.4
2009-06-24 07:32:59 51°18.211 2°50.001 304.5 12.1 296 12.6
2009-06-24 07:33:04 51°18.218 2°49.977 304.4 12.1 295 12.6
2009-06-24 07:33:09 51°18.225 2°49.953 304.2 12.1 295 12.6
2009-06-24 07:33:15 51°18.234 2°49.923 304 12.2 295 12.5
2009-06-24 07:33:20 51°18.241 2°49.899 304 12.2 295 12.5
2009-06-24 07:33:24 51°18.246 2°49.879 304.1 12.1 295 12.5
2009-06-24 07:33:29 51°18.253 2°49.855 303.9 12.2 295 12.7
2009-06-24 07:33:35 51°18.262 2°49.826 304.3 12.1 295 12.4
2009-06-24 07:33:40 51°18.269 2°49.802 304.2 12.1 295 12.3
2009-06-24 07:33:44 51°18.275 2°49.783 304.9 12 297 12.1
2009-06-24 07:33:49 51°18.282 2°49.758 305.2 12.1 295 12.1
2009-06-24 07:33:55 51°18.291 2°49.73 304.6 12 297 12.3
2009-06-24 07:33:59 51°18.297 2°49.711 305.8 12 296 12.1
2009-06-24 07:34:04 51°18.305 2°49.687 305.7 12 298 11.7
2009-06-24 07:34:09 51°18.312 2°49.663 304.8 12 295 11.6
2009-06-24 07:34:14 51°18.319 2°49.64 304.9 11.9 297 11.5
2009-06-24 07:34:20 51°18.328 2°49.611 305 12 295 11.6
2009-06-24 07:34:24 51°18.334 2°49.592 305.2 11.9 297 11.7
2009-06-24 07:34:29 51°18.341 2°49.569 305.6 11.9 296 11.4
2009-06-24 07:34:34 51°18.349 2°49.545 305.7 12 297 11.2
2009-06-24 07:34:39 51°18.356 2°49.522 305.6 11.9 298 10.8
2009-06-24 07:34:44 51°18.363 2°49.498 305.7 12 296 10.5
2009-06-24 07:34:49 51°18.371 2°49.474 305.5 11.9 297 10.2
2009-06-24 07:34:55 51°18.38 2°49.446 305.3 12 295 9.8
2009-06-24 07:34:59 51°18.386 2°49.427 304.9 11.9 297 9.6
2009-06-24 07:35:04 51°18.393 2°49.403 304.9 11.9 295 10.2
2009-06-24 07:35:09 51°18.4 2°49.38 305.2 12 297 10.2
2009-06-24 07:35:15 51°18.409 2°49.351 304.8 12 297 9.9
2009-06-24 07:35:19 51°18.415 2°49.332 305.2 12 296 10
2009-06-24 07:35:24 51°18.422 2°49.308 305.6 12 296 10.1
2009-06-24 07:35:29 51°18.431 2°49.285 306.4 12 298 9.7
2009-06-24 07:35:35 51°18.439 2°49.256 306.4 12 296 9.5
2009-06-24 07:35:40 51°18.447 2°49.233 306.5 11.9 299 8.8
2009-06-24 07:35:44 51°18.453 2°49.214 306.8 11.9 296 8.8
2009-06-24 07:35:49 51°18.461 2°49.19 306 12 297 9.2
2009-06-24 07:35:55 51°18.47 2°49.162 306 12.1 296 9
2009-06-24 07:36:00 51°18.477 2°49.139 305.7 12 298 8.7
2009-06-24 07:36:04 51°18.483 2°49.119 305.9 12 297 8.9
2009-06-24 07:36:09 51°18.491 2°49.096 306.1 12.2 297 9.4
2009-06-24 07:36:14 51°18.498 2°49.072 305.4 12.1 297 9
2009-06-24 07:36:20 51°18.508 2°49.043 305.4 12.1 297 9.6
2009-06-24 07:36:24 51°18.514 2°49.024 305.4 12.1 297 9.5
2009-06-24 07:36:29 51°18.521 2°49 305.6 12.2 296 9.2
2009-06-24 07:36:34 51°18.529 2°48.976 304.6 12.2 296 9.1
2009-06-24 07:36:40 51°18.537 2°48.946 304.6 12.1 295 9.3
2009-06-24 07:36:44 51°18.544 2°48.928 305.5 12.1 297 9.3
2009-06-24 07:36:49 51°18.552 2°48.904 305.8 12.1 296 9.1
2009-06-24 07:36:54 51°18.559 2°48.88 306.2 12.1 297 8.5
2009-06-24 07:36:59 51°18.567 2°48.857 306.7 12 297 9
2009-06-24 07:37:04 51°18.575 2°48.834 306.4 12 299 9.2
2009-06-24 07:37:09 51°18.582 2°48.809 305.7 12.1 297 10
2009-06-24 07:37:14 51°18.59 2°48.785 305.7 12.2 296 9.9
2009-06-24 07:37:19 51°18.597 2°48.761 305.8 12.1 297 9.4
2009-06-24 07:37:24 51°18.605 2°48.738 304.9 12.1 297 9.7
2009-06-24 07:37:29 51°18.612 2°48.714 305.7 12.1 297 9.7
2009-06-24 07:37:35 51°18.622 2°48.685 305.2 12.2 297 9.5
2009-06-24 07:37:39 51°18.628 2°48.666 305.5 12.2 297 9.7
2009-06-24 07:37:44 51°18.636 2°48.642 305.4 12.1 298 10
2009-06-24 07:37:49 51°18.643 2°48.618 305.6 12.1 298 9.8
2009-06-24 07:37:55 51°18.653 2°48.59 306.4 12.2 299 10.2
2009-06-24 07:38:00 51°18.661 2°48.566 306.4 12.2 297 10.4
2009-06-24 07:38:04 51°18.668 2°48.547 306.1 12.2 298 10.5
2009-06-24 07:38:09 51°18.675 2°48.522 306.2 12.3 297 11.3
2009-06-24 07:38:15 51°18.685 2°48.494 306.2 12.3 298 11.5
2009-06-24 07:38:20 51°18.692 2°48.469 305.6 12.3 297 11.3
2009-06-24 07:38:24 51°18.698 2°48.45 304.9 12.2 296 11.5
2009-06-24 07:38:29 51°18.706 2°48.425 305.2 12.2 297 11.1
2009-06-24 07:38:34 51°18.714 2°48.401 305.7 12.2 296 11.2
2009-06-24 07:38:40 51°18.723 2°48.372 305.1 12.2 297 11.6
2009-06-24 07:38:44 51°18.729 2°48.353 305.3 12.2 297 12.2
2009-06-24 07:38:49 51°18.737 2°48.329 306 12.3 297 12.4
2009-06-24 07:38:54 51°18.745 2°48.305 305.8 12.3 298 12.4
2009-06-24 07:38:59 51°18.753 2°48.281 306.3 12.1 299 12.3
2009-06-24 07:39:04 51°18.761 2°48.259 307.7 11.9 302 13.1
2009-06-24 07:39:09 51°18.772 2°48.239 313.6 11.6 308 12.8
2009-06-24 07:39:14 51°18.782 2°48.22 319.3 11.4 312 13.2
2009-06-24 07:39:19 51°18.793 2°48.201 322.6 11.5 311 13.5
2009-06-24 07:39:24 51°18.804 2°48.183 323.9 11.4 313 13.2
2009-06-24 07:39:29 51°18.815 2°48.166 326.7 11.1 316 13.6
2009-06-24 07:39:34 51°18.827 2°48.149 327.4 11.3 316 13.8
2009-06-24 07:39:39 51°18.838 2°48.133 329.1 11.1 319 14
2009-06-24 07:39:44 51°18.85 2°48.116 329.6 11.3 317 14.5
2009-06-24 07:39:49 51°18.862 2°48.101 331.1 11.2 322 14.5
2009-06-24 07:39:55 51°18.877 2°48.081 331.8 11.3 320 14.8
2009-06-24 07:39:59 51°18.887 2°48.07 332.1 11.3 323 14.8
2009-06-24 07:40:04 51°18.899 2°48.054 332.9 11.4 322 15.6
2009-06-24 07:40:09 51°18.912 2°48.039 333.2 11.3 323 15.4
2009-06-24 07:40:15 51°18.927 2°48.021 333.7 11.4 322 15.5
2009-06-24 07:40:20 51°18.939 2°48.006 333.6 11.3 323 15.4
2009-06-24 07:40:24 51°18.949 2°47.993 333.3 11.3 322 15.6
2009-06-24 07:40:29 51°18.962 2°47.978 333.2 11.3 323 16.1
2009-06-24 07:40:35 51°18.977 2°47.96 334.1 11.3 323 16
2009-06-24 07:40:39 51°18.987 2°47.948 334 11.4 322 16.5
2009-06-24 07:40:44 51°19 2°47.933 333.6 11.3 323 16.3
2009-06-24 07:40:49 51°19.012 2°47.918 333.8 11.4 322 16.3
2009-06-24 07:40:54 51°19.025 2°47.903 333.8 11.3 324 16.5
2009-06-24 07:41:00 51°19.04 2°47.885 334.3 11.4 323 16.8
2009-06-24 07:41:04 51°19.05 2°47.872 333.9 11.3 323 16.9
2009-06-24 07:41:09 51°19.063 2°47.857 333.7 11.5 322 17.1
2009-06-24 07:41:14 51°19.075 2°47.841 333.3 11.4 322 16.9
2009-06-24 07:41:19 51°19.088 2°47.826 333.2 11.4 322 16.9
2009-06-24 07:41:24 51°19.1 2°47.81 333 11.5 321 17.5
2009-06-24 07:41:29 51°19.113 2°47.794 332.8 11.5 321 17.5
2009-06-24 07:41:35 51°19.128 2°47.775 333.2 11.5 322 18
2009-06-24 07:41:39 51°19.137 2°47.762 333.4 11.4 321 17.6
2009-06-24 07:41:44 51°19.15 2°47.747 333.7 11.3 322 17.3
2009-06-24 07:41:49 51°19.162 2°47.731 333 11.2 322 18.2
2009-06-24 07:41:54 51°19.174 2°47.715 332.9 11.3 319 18.7
2009-06-24 07:41:59 51°19.186 2°47.7 334.1 11.1 322 18
2009-06-24 07:42:04 51°19.198 2°47.683 332.2 11.3 318 18.6
2009-06-24 07:42:09 51°19.21 2°47.669 333.3 11.2 323 18.7
2009-06-24 07:42:15 51°19.225 2°47.65 333.8 11.3 321 18.5
2009-06-24 07:42:19 51°19.235 2°47.637 333.2 11.4 322 18.9
2009-06-24 07:42:24 51°19.247 2°47.622 333.7 11.4 322 18.6
2009-06-24 07:42:29 51°19.26 2°47.606 333.9 11.4 322 19
2009-06-24 07:42:35 51°19.275 2°47.587 334.1 11.5 323 19.6
2009-06-24 07:42:40 51°19.288 2°47.572 334.5 11.5 323 19.5
2009-06-24 07:42:44 51°19.298 2°47.561 334.9 11.4 324 19.9
2009-06-24 07:42:49 51°19.311 2°47.545 335 11.5 323 19.8
2009-06-24 07:42:54 51°19.324 2°47.531 335 11.4 325 19.7
2009-06-24 07:43:00 51°19.34 2°47.513 335.4 11.4 324 19.9
2009-06-24 07:43:04 51°19.35 2°47.501 335.1 11.5 324 20.3
2009-06-24 07:43:09 51°19.363 2°47.485 335.2 11.6 323 20
2009-06-24 07:43:14 51°19.375 2°47.47 334.4 11.5 323 19.7
2009-06-24 07:43:19 51°19.388 2°47.456 335.2 11.4 325 19.6
2009-06-24 07:43:24 51°19.401 2°47.44 335.4 11.4 324 20.4
2009-06-24 07:43:29 51°19.414 2°47.426 336.3 11.4 326 20
2009-06-24 07:43:34 51°19.427 2°47.411 336 11.4 323 19.8
2009-06-24 07:43:39 51°19.44 2°47.397 335.4 11.4 325 20.2
2009-06-24 07:43:44 51°19.452 2°47.381 335.3 11.5 323 20.3
2009-06-24 07:43:49 51°19.465 2°47.366 335.2 11.5 324 20.7
2009-06-24 07:43:55 51°19.48 2°47.348 334.7 11.5 323 20.2
2009-06-24 07:43:59 51°19.491 2°47.336 335.5 11.2 324 19.6
2009-06-24 07:44:04 51°19.503 2°47.321 335 11.3 322 20.5
2009-06-24 07:44:10 51°19.518 2°47.303 335.1 11.3 324 20.2
2009-06-24 07:44:14 51°19.528 2°47.291 335.8 11.4 324 20.5
2009-06-24 07:44:19 51°19.541 2°47.276 335.2 11.5 322 20.1
2009-06-24 07:44:24 51°19.554 2°47.26 334.8 11.4 323 19.8
2009-06-24 07:44:28 51°19.564 2°47.248 334.4 11.4 323 20
2009-06-24 07:44:34 51°19.579 2°47.23 334.7 11.4 322 20.8
2009-06-24 07:44:39 51°19.591 2°47.214 334.1 11.5 322 20.2
2009-06-24 07:44:44 51°19.604 2°47.199 334.7 11.3 324 20.5
2009-06-24 07:44:49 51°19.616 2°47.183 334.8 11.4 322 20.6
2009-06-24 07:44:55 51°19.631 2°47.165 335.2 11.4 322 20.1
2009-06-24 07:44:59 51°19.641 2°47.152 334.2 11.5 322 20.6
2009-06-24 07:45:04 51°19.654 2°47.137 334.9 11.5 323 20.6
2009-06-24 07:45:08 51°19.664 2°47.124 334.7 11.5 322 20
2009-06-24 07:45:15 51°19.682 2°47.103 334.8 11.5 323 20.3
2009-06-24 07:45:20 51°19.694 2°47.087 334.7 11.5 322 20
2009-06-24 07:45:24 51°19.705 2°47.075 335.2 11.5 323 20.3
2009-06-24 07:45:28 51°19.715 2°47.063 335.1 11.6 323 20.1
2009-06-24 07:45:34 51°19.73 2°47.045 334.9 11.5 324 19.8
2009-06-24 07:45:40 51°19.746 2°47.028 336.1 11.3 326 19.9
2009-06-24 07:45:44 51°19.757 2°47.019 339.8 11 332 19.7
2009-06-24 07:45:48 51°19.768 2°47.011 344.9 10.8 335 19.5
2009-06-24 07:45:54 51°19.784 2°47.001 348.4 10.5 341 19.4
2009-06-24 07:45:59 51°19.798 2°46.996 354 10.2 347 19.3
2009-06-24 07:46:04 51°19.812 2°46.994 0.3 9.9 353 19.5
2009-06-24 07:46:08 51°19.823 2°46.993 7.6 9.8 359 19.5
2009-06-24 07:46:14 51°19.839 2°46.995 11.8 9.7 3 19.2
2009-06-24 07:46:19 51°19.852 2°46.996 15.1 9.7 5 19
2009-06-24 07:46:24 51°19.866 2°46.999 16.5 9.6 8 19.5
2009-06-24 07:46:30 51°19.881 2°47.004 18.2 9.5 11 18.9
2009-06-24 07:46:34 51°19.891 2°47.009 22.8 9.4 16 19.1
2009-06-24 07:46:39 51°19.904 2°47.015 25.1 9.5 16 18.9
2009-06-24 07:46:44 51°19.916 2°47.022 27.2 9.4 20 18.8
2009-06-24 07:46:49 51°19.928 2°47.029 29 9.5 21 19
2009-06-24 07:46:55 51°19.943 2°47.039 30.5 9.5 23 18.8
2009-06-24 07:46:59 51°19.953 2°47.046 31.6 9.6 23 18.7
2009-06-24 07:47:04 51°19.965 2°47.055 32.5 9.6 25 18.4
2009-06-24 07:47:09 51°19.976 2°47.064 33.4 9.5 26 18.3
2009-06-24 07:47:15 51°19.991 2°47.075 33.9 9.5 26 18.4
2009-06-24 07:47:20 51°20.002 2°47.085 34.6 9.5 26 17
2009-06-24 07:47:24 51°20.012 2°47.092 34.8 9.6 26 17.4
2009-06-24 07:47:29 51°20.024 2°47.102 35.2 9.5 27 18
2009-06-24 07:47:34 51°20.035 2°47.112 35.4 9.5 27 18.5
2009-06-24 07:47:40 51°20.049 2°47.123 35.4 9.4 27 18.4
2009-06-24 07:47:44 51°20.059 2°47.13 35.7 9.4 27 18.3
2009-06-24 07:47:49 51°20.07 2°47.14 35.6 9.5 26 18.9
2009-06-24 07:47:54 51°20.082 2°47.149 35 9.4 28 18.3
2009-06-24 07:48:00 51°20.096 2°47.161 35.3 9.4 29 18.5
2009-06-24 07:48:04 51°20.105 2°47.169 35.9 9.5 28 18.6
2009-06-24 07:48:09 51°20.117 2°47.179 36.2 9.6 28 18.5
2009-06-24 07:48:14 51°20.129 2°47.189 35.8 9.4 29 18
2009-06-24 07:48:19 51°20.14 2°47.199 36 9.4 27 18.1
2009-06-24 07:48:24 51°20.152 2°47.207 34.7 9.5 25 17.4
2009-06-24 07:48:29 51°20.164 2°47.216 34.2 9.6 25 17.4
2009-06-24 07:48:35 51°20.178 2°47.227 33.8 9.5 24 17.3
2009-06-24 07:48:39 51°20.188 2°47.234 33.6 9.6 24 17.6
2009-06-24 07:48:44 51°20.2 2°47.243 33.5 9.6 24 17.5
2009-06-24 07:48:49 51°20.213 2°47.25 31.8 9.6 20 17.8
2009-06-24 07:48:55 51°20.228 2°47.26 30.6 9.7 22 18.1
2009-06-24 07:48:59 51°20.238 2°47.265 30 9.7 19 17.5
2009-06-24 07:49:04 51°20.251 2°47.272 29.4 9.7 19 17.2
2009-06-24 07:49:10 51°20.266 2°47.281 28.8 9.8 19 17.1
2009-06-24 07:49:14 51°20.276 2°47.286 28.7 9.8 19 17.8
2009-06-24 07:49:19 51°20.289 2°47.293 28.9 9.8 19 18.1
2009-06-24 07:49:24 51°20.302 2°47.301 28.9 9.8 20 17.4
2009-06-24 07:49:29 51°20.315 2°47.307 29.1 9.7 19 17.5
2009-06-24 07:49:35 51°20.33 2°47.316 29.1 9.7 19 17.5
2009-06-24 07:49:39 51°20.341 2°47.32 27.3 9.9 15 17.3
2009-06-24 07:49:44 51°20.354 2°47.327 26.7 9.9 16 17.4
2009-06-24 07:49:48 51°20.364 2°47.331 25.7 9.9 14 16.7
2009-06-24 07:49:54 51°20.38 2°47.337 25.5 9.9 15 16.9
2009-06-24 07:50:00 51°20.396 2°47.344 25.1 9.9 14 16.2
2009-06-24 07:50:04 51°20.407 2°47.348 24.2 9.9 14 15.6
2009-06-24 07:50:08 51°20.418 2°47.352 24.1 9.9 12 15.3
2009-06-24 07:50:14 51°20.434 2°47.358 23.9 9.9 14 16.7
2009-06-24 07:50:20 51°20.45 2°47.364 24.2 9.9 13 16.9
2009-06-24 07:50:24 51°20.461 2°47.368 24.5 9.9 14 17.4
2009-06-24 07:50:29 51°20.474 2°47.374 24.7 9.8 15 17.1
2009-06-24 07:50:35 51°20.49 2°47.38 25.2 9.9 15 17.5
2009-06-24 07:50:39 51°20.501 2°47.384 24.6 9.8 13 16.7
2009-06-24 07:50:44 51°20.514 2°47.389 24 9.8 14 16.5
2009-06-24 07:50:48 51°20.524 2°47.393 23.9 9.8 13 14.9
2009-06-24 07:50:54 51°20.54 2°47.399 23.9 9.7 14 16.2
2009-06-24 07:50:59 51°20.553 2°47.405 24.4 9.7 15 16.3
2009-06-24 07:51:04 51°20.566 2°47.41 24.8 9.8 14 16.5
2009-06-24 07:51:10 51°20.582 2°47.415 24.3 9.7 13 17
2009-06-24 07:51:14 51°20.593 2°47.419 24.1 9.8 14 17.4
2009-06-24 07:51:19 51°20.606 2°47.424 24 9.7 11 16.9
2009-06-24 07:51:24 51°20.619 2°47.428 22.6 9.8 11 17.3
2009-06-24 07:51:28 51°20.63 2°47.431 22.1 9.9 10 16.9
2009-06-24 07:51:35 51°20.649 2°47.437 21.6 9.9 10 16.7
2009-06-24 07:51:39 51°20.66 2°47.44 21.3 9.8 10 17.2
2009-06-24 07:51:44 51°20.673 2°47.443 20.5 9.8 9 16.8
2009-06-24 07:51:48 51°20.684 2°47.444 18.2 10 5 16.8
2009-06-24 07:51:55 51°20.703 2°47.447 16.9 9.9 6 16.8
2009-06-24 07:52:00 51°20.718 2°47.447 16.3 10.1 1 16.6
2009-06-24 07:52:04 51°20.729 2°47.447 13.6 10.2 -999 16.5
2009-06-24 07:52:08 51°20.74 2°47.448 12.8 10.2 359 16.4
2009-06-24 07:52:14 51°20.757 2°47.446 11.1 10.3 357 16.6
2009-06-24 07:52:20 51°20.775 2°47.444 10.1 10.3 357 16
2009-06-24 07:52:24 51°20.786 2°47.443 9.4 10.3 357 15.2
2009-06-24 07:52:28 51°20.798 2°47.441 8.7 10.4 354 16.1
2009-06-24 07:52:34 51°20.815 2°47.439 8.1 10.4 355 17
2009-06-24 07:52:40 51°20.832 2°47.434 5.2 10.6 350 17.6
2009-06-24 07:52:44 51°20.844 2°47.432 4.2 10.5 353 17.8
2009-06-24 07:52:48 51°20.855 2°47.428 3.3 10.6 348 17.6
2009-06-24 07:52:54 51°20.872 2°47.422 1.7 10.6 349 18.5
2009-06-24 07:52:59 51°20.887 2°47.417 1 10.6 347 18.3
2009-06-24 07:53:04 51°20.901 2°47.411 359.6 10.7 346 18.6
2009-06-24 07:53:10 51°20.919 2°47.404 358.8 10.7 346 18.7
2009-06-24 07:53:14 51°20.931 2°47.4 358.7 10.8 346 18.8
2009-06-24 07:53:19 51°20.945 2°47.394 358.4 10.9 345 19.1
2009-06-24 07:53:24 51°20.96 2°47.387 358.1 10.9 344 18.7
2009-06-24 07:53:30 51°20.977 2°47.378 356.9 10.9 343 18.4
2009-06-24 07:53:34 51°20.989 2°47.372 356.4 11 343 17.5
2009-06-24 07:53:39 51°21.003 2°47.363 354.8 11 339 17.2
2009-06-24 07:53:44 51°21.018 2°47.355 353.6 11 340 17.5
2009-06-24 07:53:50 51°21.035 2°47.344 353.4 11 338 17.9
2009-06-24 07:53:55 51°21.049 2°47.335 352.5 10.9 339 18.6
2009-06-24 07:53:59 51°21.06 2°47.328 352.4 11 339 18.9
2009-06-24 07:54:04 51°21.074 2°47.32 352.4 11 340 19.1
2009-06-24 07:54:08 51°21.086 2°47.313 352.5 10.9 339 19.1
2009-06-24 07:54:15 51°21.105 2°47.3 351.6 11 339 20
2009-06-24 07:54:20 51°21.12 2°47.291 352 11 338 20.3
2009-06-24 07:54:24 51°21.131 2°47.284 352.4 10.9 339 20.4
2009-06-24 07:54:28 51°21.142 2°47.276 351.2 11 338 20.3
2009-06-24 07:54:34 51°21.159 2°47.265 350.6 11 338 21
2009-06-24 07:54:40 51°21.175 2°47.253 349.8 11.2 335 20.2
2009-06-24 07:54:44 51°21.187 2°47.245 349.2 11.1 336 21.3
2009-06-24 07:54:48 51°21.198 2°47.237 349 11.1 336 21.3
2009-06-24 07:54:54 51°21.215 2°47.225 349.3 11.1 336 21.6
2009-06-24 07:55:00 51°21.232 2°47.213 349.3 11.2 336 22.1
2009-06-24 07:55:04 51°21.243 2°47.205 348.8 11.2 336 21.9
2009-06-24 07:55:08 51°21.255 2°47.197 349 11.2 337 22
2009-06-24 07:55:14 51°21.271 2°47.184 349 11.2 335 22.3
2009-06-24 07:55:19 51°21.286 2°47.174 349.2 11.2 336 22.4
2009-06-24 07:55:24 51°21.3 2°47.163 348.6 11.2 334 22.2
2009-06-24 07:55:30 51°21.316 2°47.15 346.7 11.3 333 22.1
2009-06-24 07:55:34 51°21.327 2°47.14 345.5 11.3 332 22.1
2009-06-24 07:55:39 51°21.341 2°47.128 344.8 11.4 331 22.5
2009-06-24 07:55:44 51°21.355 2°47.116 344.1 11.4 332 22.4
2009-06-24 07:55:50 51°21.372 2°47.1 342.4 11.5 329 22.6
2009-06-24 07:55:54 51°21.383 2°47.09 342.5 11.5 331 22.3
2009-06-24 07:55:59 51°21.396 2°47.076 342.4 11.4 327 22
2009-06-24 07:56:04 51°21.41 2°47.063 341 11.3 327 22.1
2009-06-24 07:56:10 51°21.425 2°47.044 338.1 11.5 323 22.7
2009-06-24 07:56:15 51°21.438 2°47.029 336.9 11.5 325 22.1
2009-06-24 07:56:20 51°21.45 2°47.013 336.3 11.6 322 22.1
2009-06-24 07:56:24 51°21.46 2°46.999 333.6 11.7 319 22.1
2009-06-24 07:56:29 51°21.473 2°46.983 333.1 11.6 321 21.2
2009-06-24 07:56:35 51°21.487 2°46.961 331 11.8 317 22
2009-06-24 07:56:39 51°21.497 2°46.948 330.4 11.8 319 21.9
2009-06-24 07:56:44 51°21.508 2°46.929 329.7 11.9 316 22.4
2009-06-24 07:56:48 51°21.518 2°46.915 328.9 12 316 23.7
2009-06-24 07:56:54 51°21.532 2°46.893 328.8 12 316 23.1
2009-06-24 07:57:00 51°21.547 2°46.871 328.3 11.9 316 23.5
2009-06-24 07:57:04 51°21.556 2°46.856 328.1 12 316 23.7
2009-06-24 07:57:08 51°21.566 2°46.841 328.1 12 315 23.5
2009-06-24 07:57:14 51°21.58 2°46.819 327.3 12 315 23.8
2009-06-24 07:57:19 51°21.592 2°46.8 327.1 12 315 23.7
2009-06-24 07:57:24 51°21.604 2°46.782 327.4 11.9 317 23.2
2009-06-24 07:57:28 51°21.613 2°46.767 327.4 11.8 315 23.2
2009-06-24 07:57:34 51°21.627 2°46.745 327.2 11.8 315 23.6
2009-06-24 07:57:39 51°21.638 2°46.725 326.5 11.9 314 24.3
2009-06-24 07:57:44 51°21.65 2°46.707 328.3 11.6 315 23.2
2009-06-24 07:57:50 51°21.663 2°46.685 327.1 11.7 314 23.8
2009-06-24 07:57:54 51°21.672 2°46.67 326.2 11.7 315 23.4
2009-06-24 07:57:59 51°21.684 2°46.653 327.6 11.6 315 23.4
2009-06-24 07:58:04 51°21.696 2°46.634 327.6 11.8 314 23.7
2009-06-24 07:58:10 51°21.709 2°46.611 327.1 11.9 314 23.5
2009-06-24 07:58:14 51°21.719 2°46.596 325 11.9 314 23.3
2009-06-24 07:58:19 51°21.73 2°46.577 324.5 12 313 23.2
2009-06-24 07:58:24 51°21.741 2°46.556 323.8 12.1 311 23.2
2009-06-24 07:58:28 51°21.75 2°46.54 323.9 12 311 23.4
2009-06-24 07:58:35 51°21.765 2°46.512 322.8 12.1 312 23.6
2009-06-24 07:58:39 51°21.774 2°46.495 322.2 12.2 310 23.5
2009-06-24 07:58:44 51°21.785 2°46.475 322.2 12.2 310 23.3
2009-06-24 07:58:48 51°21.793 2°46.458 321.4 12 310 22.5
2009-06-24 07:58:55 51°21.808 2°46.43 321.6 12 310 23.4
2009-06-24 07:59:00 51°21.819 2°46.409 321.1 12.1 310 22.9
2009-06-24 07:59:04 51°21.828 2°46.394 322.2 11.9 312 22.4
2009-06-24 07:59:08 51°21.836 2°46.378 322.7 11.9 311 22.8
2009-06-24 07:59:14 51°21.85 2°46.354 322.5 11.9 312 22.2
2009-06-24 07:59:20 51°21.863 2°46.332 323.8 11.8 313 21.8
2009-06-24 07:59:24 51°21.872 2°46.316 323.9 11.8 313 21.9
2009-06-24 07:59:28 51°21.881 2°46.301 323.6 11.8 313 21.6
2009-06-24 07:59:34 51°21.895 2°46.278 324.4 11.8 314 21.6
2009-06-24 07:59:39 51°21.906 2°46.258 323.8 12 312 21.7
2009-06-24 07:59:44 51°21.918 2°46.239 325.2 12 315 20.9
2009-06-24 07:59:48 51°21.926 2°46.224 324.8 12 311 20.3
2009-06-24 07:59:54 51°21.94 2°46.201 324.5 11.8 315 20.5
2009-06-24 07:59:59 51°21.951 2°46.182 324.8 11.8 313 20.3
2009-06-24 08:00:04 51°21.963 2°46.163 325.3 11.9 315 20.6
2009-06-24 08:00:10 51°21.977 2°46.14 325.3 12 313 20.4
2009-06-24 08:00:14 51°21.986 2°46.125 325.2 11.8 314 20.1
2009-06-24 08:00:19 51°21.997 2°46.106 325.2 12 313 20.6
2009-06-24 08:00:24 51°22.009 2°46.087 324.9 11.9 314 20.2
2009-06-24 08:00:30 51°22.023 2°46.065 325 11.7 314 20.1
2009-06-24 08:00:34 51°22.032 2°46.05 325.2 11.8 314 20.3
2009-06-24 08:00:39 51°22.043 2°46.031 325.3 11.7 314 20
2009-06-24 08:00:44 51°22.054 2°46.014 325.7 11.5 314 19.5
2009-06-24 08:00:48 51°22.062 2°45.998 325.4 11.5 312 20.4
2009-06-24 08:00:55 51°22.078 2°45.974 326.3 11.3 315 19.6
2009-06-24 08:01:00 51°22.088 2°45.955 324.5 11.5 312 19.7
2009-06-24 08:01:04 51°22.098 2°45.941 326.1 11.2 317 19.6
2009-06-24 08:01:08 51°22.106 2°45.926 325.8 11.5 311 19.2
2009-06-24 08:01:14 51°22.12 2°45.906 326.1 11.2 318 19.6
2009-06-24 08:01:20 51°22.132 2°45.882 326 11.5 312 19.8
2009-06-24 08:01:24 51°22.141 2°45.869 325.9 11.4 314 19.6
2009-06-24 08:01:28 51°22.15 2°45.854 326.1 11.5 313 19.7
2009-06-24 08:01:34 51°22.164 2°45.833 325.6 11.3 316 20.1
2009-06-24 08:01:40 51°22.176 2°45.81 326 11.5 312 20.8
2009-06-24 08:01:44 51°22.185 2°45.796 325.2 11.4 314 20.7
2009-06-24 08:01:48 51°22.194 2°45.781 326.1 11.4 312 20.1
2009-06-24 08:01:54 51°22.207 2°45.759 324.3 11.3 314 20.6
2009-06-24 08:01:59 51°22.218 2°45.742 326.4 11.3 315 20.5
2009-06-24 08:02:04 51°22.229 2°45.723 325 11.3 313 20.5
2009-06-24 08:02:10 51°22.242 2°45.702 326 11.3 315 21
2009-06-24 08:02:14 51°22.25 2°45.687 325.5 11.5 311 21.7
2009-06-24 08:02:19 51°22.262 2°45.669 326.4 11.4 315 21.2
2009-06-24 08:02:24 51°22.272 2°45.65 326 11.5 312 21.3
2009-06-24 08:02:30 51°22.286 2°45.63 326.8 11.3 316 20.4
2009-06-24 08:02:34 51°22.294 2°45.614 325.9 11.5 312 20.2
2009-06-24 08:02:39 51°22.305 2°45.597 326.5 11.4 314 20
2009-06-24 08:02:44 51°22.316 2°45.578 325.5 11.6 312 20.1
2009-06-24 08:02:48 51°22.325 2°45.564 326 11.3 316 20.4
2009-06-24 08:02:55 51°22.34 2°45.538 326.5 11.3 313 20.5
2009-06-24 08:02:59 51°22.349 2°45.524 325.6 11.4 315 20.7
2009-06-24 08:03:04 51°22.36 2°45.506 326.5 11.3 315 20.4
2009-06-24 08:03:08 51°22.369 2°45.491 326 11.4 314 20.4
2009-06-24 08:03:15 51°22.384 2°45.465 326.2 11.4 314 21.2
2009-06-24 08:03:20 51°22.395 2°45.446 326.3 11.5 313 21.9
2009-06-24 08:03:24 51°22.404 2°45.431 325.6 11.6 313 22.3
2009-06-24 08:03:28 51°22.413 2°45.418 327.3 11.3 317 22.2
2009-06-24 08:03:34 51°22.426 2°45.395 326.3 11.6 312 23
2009-06-24 08:03:40 51°22.44 2°45.374 326.6 11.4 316 23.4
2009-06-24 08:03:44 51°22.449 2°45.359 326.2 11.5 313 23.4
2009-06-24 08:03:48 51°22.457 2°45.344 325.5 11.6 315 23.5
2009-06-24 08:03:54 51°22.47 2°45.321 325.6 11.5 312 22.6
2009-06-24 08:04:00 51°22.483 2°45.299 325.8 11.3 313 23.5
2009-06-24 08:04:04 51°22.491 2°45.284 325.2 11.4 311 23.6
2009-06-24 08:04:08 51°22.5 2°45.27 326.2 11.1 314 23.4
2009-06-24 08:04:14 51°22.512 2°45.246 324 11.5 309 24.3
2009-06-24 08:04:19 51°22.524 2°45.23 325.6 11.1 318 24
2009-06-24 08:04:24 51°22.534 2°45.21 326.5 11.5 309 23.7
2009-06-24 08:04:30 51°22.547 2°45.189 324.5 11.3 316 24.1
2009-06-24 08:04:34 51°22.555 2°45.174 325.8 11.4 312 24
2009-06-24 08:04:39 51°22.566 2°45.155 325.7 11.3 314 23.6
2009-06-24 08:04:44 51°22.577 2°45.137 326.1 11.2 313 22.8
2009-06-24 08:04:50 51°22.589 2°45.114 324 11.3 311 22.6
2009-06-24 08:04:54 51°22.598 2°45.1 325.6 11.1 314 21.3
2009-06-24 08:04:59 51°22.608 2°45.081 325.2 11.3 312 22.6
2009-06-24 08:05:04 51°22.618 2°45.063 325.6 11.2 313 23.5
2009-06-24 08:05:08 51°22.627 2°45.048 326.1 11.1 312 24.1
2009-06-24 08:05:15 51°22.641 2°45.023 326.5 11.1 313 24.3
2009-06-24 08:05:19 51°22.65 2°45.008 326.1 11.2 313 24.5
2009-06-24 08:05:24 51°22.661 2°44.99 326 11.2 314 24.9
2009-06-24 08:05:28 51°22.669 2°44.975 326.3 11.5 314 25.5
2009-06-24 08:05:35 51°22.685 2°44.951 327.4 11.4 316 24.8
2009-06-24 08:05:40 51°22.695 2°44.931 325.9 11.4 312 24.7
2009-06-24 08:05:44 51°22.705 2°44.918 327.4 11.2 318 25.4
2009-06-24 08:05:48 51°22.714 2°44.903 327.4 11.6 312 25.5
2009-06-24 08:05:54 51°22.728 2°44.882 326.8 11.4 317 25.1
2009-06-24 08:06:00 51°22.741 2°44.86 328.2 11.5 314 25.5
2009-06-24 08:06:04 51°22.75 2°44.845 326.2 11.5 313 25.4
2009-06-24 08:06:08 51°22.759 2°44.832 327.4 11.4 314 24.1
2009-06-24 08:06:14 51°22.772 2°44.809 326.2 11.5 314 24.9
2009-06-24 08:06:19 51°22.783 2°44.791 327.4 11.4 314 24.2
2009-06-24 08:06:24 51°22.794 2°44.772 326.7 11.6 314 24.7
2009-06-24 08:06:28 51°22.803 2°44.757 326.5 11.7 313 24.6
2009-06-24 08:06:34 51°22.816 2°44.735 326.7 11.6 315 25.1
2009-06-24 08:06:39 51°22.827 2°44.716 326.6 11.7 312 25.4
2009-06-24 08:06:44 51°22.839 2°44.697 326.4 11.7 314 25.4
2009-06-24 08:06:50 51°22.852 2°44.675 326.4 11.7 314 24.7
2009-06-24 08:06:54 51°22.861 2°44.66 326.7 11.7 313 24.6
2009-06-24 08:06:59 51°22.872 2°44.64 326 11.8 313 24.5
2009-06-24 08:07:04 51°22.884 2°44.622 326.5 11.8 314 23.5
2009-06-24 08:07:10 51°22.897 2°44.599 326.5 11.8 314 23.9
2009-06-24 08:07:14 51°22.906 2°44.584 326.9 11.8 313 24.2
2009-06-24 08:07:19 51°22.917 2°44.565 327.1 11.9 313 25.3
2009-06-24 08:07:24 51°22.929 2°44.545 326.1 11.9 313 25.3
2009-06-24 08:07:28 51°22.938 2°44.53 326.6 11.8 313 25.7
2009-06-24 08:07:35 51°22.953 2°44.503 326 11.9 314 24.5
2009-06-24 08:07:40 51°22.965 2°44.484 326.3 11.9 314 22.6